Time;durP1;ratioP1;P1;durP2;ratioP2;P2;SDS_P1;SDS_P2;PMS_P1;PMS_P2;Temp;Humidity;BMP_temperature;BMP_pressure;BME280_temperature;BME280_humidity;BME280_pressure;Samples;Min_cycle;Max_cycle;Signal;HPM_P1;HPM_P2
2020/12/25 00:00:12;;;;;;;0.70;0.50;;;;;;;2.34;100.00;96249.22;4944567;28;20230;-44
2020/12/25 00:02:39;;;;;;;0.70;0.50;;;;;;;2.33;100.00;96253.53;4939608;28;20298;-43
2020/12/25 00:05:06;;;;;;;0.70;0.52;;;;;;;2.27;100.00;96256.31;4942445;28;20614;-44
2020/12/25 00:07:34;;;;;;;1.98;0.52;;;;;;;2.31;100.00;96255.31;4946844;28;20683;-44
2020/12/25 00:10:01;;;;;;;0.80;0.60;;;;;;;2.29;100.00;96257.09;4939270;28;20861;-43
2020/12/25 00:12:27;;;;;;;0.70;0.50;;;;;;;2.40;100.00;96260.13;4938967;28;20605;-43
2020/12/25 00:14:54;;;;;;;0.90;0.60;;;;;;;2.37;100.00;96265.34;4939999;28;20353;-43
2020/12/25 00:17:21;;;;;;;0.80;0.50;;;;;;;2.27;100.00;96258.06;4944015;28;20267;-43
2020/12/25 00:19:48;;;;;;;0.70;0.50;;;;;;;2.28;100.00;96252.84;4941707;28;20231;-43
2020/12/25 00:22:16;;;;;;;0.82;0.63;;;;;;;2.00;100.00;96223.91;4943729;28;20397;-44
2020/12/25 00:24:44;;;;;;;0.85;0.50;;;;;;;2.23;100.00;96266.75;4938177;28;20225;-39
2020/12/25 00:27:11;;;;;;;0.90;0.60;;;;;;;2.23;100.00;96262.47;4939725;28;20583;-39
2020/12/25 00:29:37;;;;;;;0.90;0.65;;;;;;;2.30;100.00;96266.50;4939903;28;20228;-39
2020/12/25 00:32:04;;;;;;;0.85;0.57;;;;;;;2.22;100.00;96245.34;4940354;28;20372;-39
2020/12/25 00:34:31;;;;;;;0.80;0.60;;;;;;;2.25;100.00;96267.50;4943317;28;20226;-39
2020/12/25 00:36:58;;;;;;;0.70;0.60;;;;;;;2.22;100.00;96265.88;4937849;28;20192;-39
2020/12/25 00:39:25;;;;;;;1.35;0.70;;;;;;;2.15;100.00;96259.28;4939511;28;20613;-39
2020/12/25 00:41:52;;;;;;;0.80;0.60;;;;;;;2.20;100.00;96254.84;4941183;28;20280;-39
2020/12/25 00:44:19;;;;;;;0.77;0.60;;;;;;;2.04;100.00;96250.28;4943248;28;20610;-39
2020/12/25 00:46:47;;;;;;;1.80;0.85;;;;;;;2.03;100.00;96267.44;4941400;28;20768;-39
2020/12/25 00:49:15;;;;;;;0.90;0.80;;;;;;;1.99;100.00;96267.59;4940617;28;20765;-39
2020/12/25 00:51:47;;;;;;;0.93;0.60;;;;;;;2.01;100.00;96261.53;4939096;28;20878;-45
2020/12/25 00:54:15;;;;;;;1.88;0.90;;;;;;;2.06;100.00;96262.19;4939987;28;20689;-45
2020/12/25 00:56:41;;;;;;;4.25;1.05;;;;;;;2.09;100.00;96262.09;4933275;28;20335;-44
2020/12/25 00:59:09;;;;;;;1.35;0.90;;;;;;;2.13;100.00;96263.66;4941098;28;20306;-44
2020/12/25 01:01:37;;;;;;;0.95;0.70;;;;;;;2.14;100.00;96249.94;4940076;28;20577;-44
2020/12/25 01:04:12;;;;;;;1.92;1.08;;;;;;;2.18;100.00;96271.19;4937081;28;20301;-43
2020/12/25 01:06:41;;;;;;;1.20;0.93;;;;;;;1.94;100.00;96249.81;4939561;28;20752;-45
2020/12/25 01:09:08;;;;;;;1.60;1.00;;;;;;;2.00;100.00;96271.84;4939544;28;20909;-43
2020/12/25 01:11:39;;;;;;;1.85;1.50;;;;;;;2.02;100.00;96278.59;4940676;28;20196;-44
2020/12/25 01:14:06;;;;;;;1.48;1.13;;;;;;;2.02;100.00;96273.47;4941354;28;20726;-44
2020/12/25 01:16:33;;;;;;;1.05;0.90;;;;;;;2.01;100.00;96269.22;4938750;28;20332;-44
2020/12/25 01:19:00;;;;;;;1.55;1.25;;;;;;;2.10;100.00;96281.72;4937619;28;20848;-44
2020/12/25 01:21:27;;;;;;;1.30;1.20;;;;;;;2.02;100.00;96294.00;4939731;28;20598;-44
2020/12/25 01:23:54;;;;;;;2.13;1.40;;;;;;;2.01;100.00;96301.72;4938931;28;20724;-39
2020/12/25 01:26:21;;;;;;;1.80;1.25;;;;;;;2.04;100.00;96305.03;4938592;28;20586;-39
2020/12/25 01:28:48;;;;;;;1.80;1.30;;;;;;;2.03;100.00;96305.06;4941910;28;20223;-39
2020/12/25 01:31:15;;;;;;;3.25;1.40;;;;;;;2.04;100.00;96311.88;4941167;28;20195;-39
2020/12/25 01:33:43;;;;;;;1.98;1.55;;;;;;;2.08;100.00;96305.78;4942049;28;20656;-39
2020/12/25 01:36:10;;;;;;;2.67;1.63;;;;;;;2.15;100.00;96315.75;4943512;28;20218;-39
2020/12/25 01:38:37;;;;;;;7.22;1.17;;;;;;;2.07;100.00;96317.75;4944576;28;20273;-39
2020/12/25 01:41:04;;;;;;;2.65;1.38;;;;;;;2.04;100.00;96323.00;4942819;28;20262;-39
2020/12/25 01:43:31;;;;;;;1.30;1.20;;;;;;;2.08;100.00;96328.88;4942593;28;20685;-39
2020/12/25 01:45:58;;;;;;;2.28;1.25;;;;;;;2.19;100.00;96329.31;4941718;28;20832;-39
2020/12/25 01:48:24;;;;;;;3.10;1.67;;;;;;;2.23;100.00;96338.63;4943977;28;20819;-39
2020/12/25 01:50:53;;;;;;;2.83;1.30;;;;;;;2.17;100.00;96344.81;4946248;28;20363;-39
2020/12/25 01:53:21;;;;;;;3.10;1.17;;;;;;;2.12;100.00;96350.97;4937186;28;20262;-38
2020/12/25 01:55:50;;;;;;;3.00;2.03;;;;;;;2.06;100.00;96346.06;4936540;28;20660;-41
2020/12/25 01:58:17;;;;;;;4.35;1.40;;;;;;;2.11;100.00;96345.00;4937385;28;20226;-38
2020/12/25 02:00:46;;;;;;;1.30;1.20;;;;;;;2.04;100.00;96342.69;4939840;28;20706;-38
2020/12/25 02:03:15;;;;;;;2.17;1.25;;;;;;;2.04;100.00;96351.22;4942658;28;20204;-39
2020/12/25 02:05:43;;;;;;;7.40;2.85;;;;;;;2.09;100.00;96351.91;4936272;28;20227;-38
2020/12/25 02:08:12;;;;;;;1.52;1.35;;;;;;;2.09;100.00;96354.50;4945643;28;20720;-38
2020/12/25 02:10:40;;;;;;;2.08;1.67;;;;;;;2.08;100.00;96365.66;4945206;28;20717;-39
2020/12/25 02:13:08;;;;;;;3.45;1.85;;;;;;;2.14;100.00;96367.16;4946033;28;20650;-38
2020/12/25 02:15:35;;;;;;;2.10;1.60;;;;;;;2.17;100.00;96364.47;4941068;28;20310;-39
2020/12/25 02:18:03;;;;;;;3.70;1.52;;;;;;;2.17;100.00;96365.34;4943851;28;20598;-43
2020/12/25 02:20:30;;;;;;;2.75;1.73;;;;;;;2.21;100.00;96379.72;4945406;28;20747;-43
2020/12/25 02:22:58;;;;;;;2.92;1.65;;;;;;;2.32;100.00;96380.22;4943533;28;20521;-43
2020/12/25 02:25:25;;;;;;;3.58;1.88;;;;;;;2.29;100.00;96394.91;4944304;28;20709;-43
2020/12/25 02:27:52;;;;;;;2.85;1.40;;;;;;;2.30;100.00;96387.16;4945304;28;20295;-43
2020/12/25 02:30:18;;;;;;;2.33;1.40;;;;;;;2.28;100.00;96383.78;4946409;28;20223;-43
2020/12/25 02:32:45;;;;;;;3.13;1.60;;;;;;;2.27;100.00;96399.25;4944387;28;20828;-43
2020/12/25 02:35:15;;;;;;;4.47;1.55;;;;;;;2.20;100.00;96396.03;4946176;28;20848;-43
2020/12/25 02:37:42;;;;;;;3.92;1.83;;;;;;;2.14;100.00;96385.13;4943509;28;20199;-43
2020/12/25 02:40:10;;;;;;;2.70;1.55;;;;;;;2.22;100.00;96389.09;4946530;28;20281;-38
2020/12/25 02:42:36;;;;;;;1.50;1.20;;;;;;;2.12;100.00;96377.47;4945335;28;20678;-38
2020/12/25 02:45:04;;;;;;;2.92;1.55;;;;;;;2.24;100.00;96394.19;4944320;28;20224;-39
2020/12/25 02:47:31;;;;;;;1.90;1.50;;;;;;;2.32;100.00;96399.91;4945560;28;20293;-38
2020/12/25 02:49:58;;;;;;;2.85;1.40;;;;;;;2.28;100.00;96398.34;4944800;28;20306;-38
2020/12/25 02:52:26;;;;;;;2.80;1.60;;;;;;;2.28;100.00;96398.34;4947186;28;20236;-38
2020/12/25 02:54:52;;;;;;;2.35;1.30;;;;;;;2.30;100.00;96399.97;4940137;28;20584;-38
2020/12/25 02:57:20;;;;;;;3.25;1.73;;;;;;;2.36;100.00;96402.31;4939434;28;20659;-39
2020/12/25 02:59:47;;;;;;;2.28;1.50;;;;;;;2.31;100.00;96395.66;4939273;28;20825;-40
2020/12/25 03:02:15;;;;;;;3.80;1.70;;;;;;;2.33;100.00;96397.31;4939578;28;20228;-38
2020/12/25 03:04:42;;;;;;;1.85;1.55;;;;;;;2.41;100.00;96405.59;4936079;28;20223;-38
2020/12/25 03:07:14;;;;;;;2.20;1.17;;;;;;;2.44;100.00;96402.91;4948948;28;20677;-44
2020/12/25 03:09:43;;;;;;;1.80;1.33;;;;;;;2.41;100.00;96403.00;4947269;28;20231;-38
2020/12/25 03:12:10;;;;;;;1.63;1.50;;;;;;;2.38;100.00;96403.13;4943825;28;20630;-38
2020/12/25 03:14:38;;;;;;;2.78;1.38;;;;;;;2.40;100.00;96409.03;4944008;28;20693;-39
2020/12/25 03:17:05;;;;;;;2.20;2.00;;;;;;;2.34;100.00;96406.69;4939969;28;20242;-38
2020/12/25 03:19:32;;;;;;;2.35;1.40;;;;;;;2.42;100.00;96407.25;4943158;28;20905;-38
2020/12/25 03:21:58;;;;;;;2.15;1.40;;;;;;;2.50;100.00;96404.44;4942520;28;20713;-39
2020/12/25 03:24:25;;;;;;;1.75;1.52;;;;;;;2.56;100.00;96410.22;4940654;28;20706;-38
2020/12/25 03:26:52;;;;;;;3.58;1.63;;;;;;;2.57;100.00;96409.31;4940455;28;20856;-38
2020/12/25 03:29:19;;;;;;;1.50;1.17;;;;;;;2.52;100.00;96410.38;4945227;28;20785;-44
2020/12/25 03:31:47;;;;;;;2.20;1.40;;;;;;;2.40;100.00;96406.47;4944056;28;20223;-38
2020/12/25 03:34:14;;;;;;;1.42;1.27;;;;;;;2.27;100.00;96418.03;4944545;28;20275;-38
2020/12/25 03:36:41;;;;;;;1.60;1.10;;;;;;;2.28;100.00;96414.56;4943235;28;20235;-38
2020/12/25 03:39:08;;;;;;;2.17;1.75;;;;;;;2.31;100.00;96427.34;4938812;28;20318;-38
2020/12/25 03:41:35;;;;;;;2.30;1.48;;;;;;;2.25;100.00;96421.53;4939195;28;20603;-39
2020/12/25 03:44:02;;;;;;;1.45;1.35;;;;;;;2.29;100.00;96418.81;4940845;28;20250;-43
2020/12/25 03:46:33;;;;;;;2.17;1.45;;;;;;;2.28;100.00;96424.03;4940907;28;20297;-43
2020/12/25 03:49:01;;;;;;;1.65;1.55;;;;;;;2.17;100.00;96401.28;4942645;28;20275;-43
2020/12/25 03:51:28;;;;;;;1.63;1.33;;;;;;;2.32;100.00;96426.44;4945183;28;20734;-43
2020/12/25 03:53:55;;;;;;;2.22;1.60;;;;;;;2.24;100.00;96417.28;4942386;28;20306;-43
2020/12/25 03:56:21;;;;;;;2.33;1.52;;;;;;;2.23;100.00;96433.59;4939219;28;20291;-44
2020/12/25 03:58:48;;;;;;;2.20;1.55;;;;;;;2.27;100.00;96427.47;4939072;28;20682;-43
2020/12/25 04:01:16;;;;;;;1.80;1.40;;;;;;;2.32;100.00;96425.59;4941904;28;20617;-43
2020/12/25 04:03:43;;;;;;;1.60;1.25;;;;;;;2.39;100.00;96435.63;4938485;28;20658;-46
2020/12/25 04:06:11;;;;;;;2.35;1.75;;;;;;;2.36;100.00;96434.88;4938420;28;20306;-43
2020/12/25 04:08:38;;;;;;;2.65;1.65;;;;;;;2.37;100.00;96434.81;4938300;28;20671;-43
2020/12/25 04:11:05;;;;;;;3.15;2.25;;;;;;;2.24;100.00;96438.69;4940219;28;20628;-38
2020/12/25 04:13:33;;;;;;;3.17;2.13;;;;;;;2.22;100.00;96422.47;4942840;28;20657;-42
2020/12/25 04:16:01;;;;;;;3.70;1.83;;;;;;;2.39;100.00;96443.31;4944641;28;20207;-39
2020/12/25 04:18:28;;;;;;;3.33;2.65;;;;;;;2.25;100.00;96430.09;4944159;28;20199;-43
2020/12/25 04:20:56;;;;;;;2.85;2.17;;;;;;;2.32;100.00;96446.97;4944519;28;20225;-39
2020/12/25 04:23:24;;;;;;;3.95;2.30;;;;;;;2.36;100.00;96448.53;4937937;28;20303;-39
2020/12/25 04:25:51;;;;;;;2.47;2.03;;;;;;;2.36;100.00;96451.09;4938638;28;20271;-39
2020/12/25 04:28:18;;;;;;;2.50;2.20;;;;;;;2.33;100.00;96453.78;4944595;28;20348;-42
2020/12/25 04:30:44;;;;;;;3.55;2.35;;;;;;;2.39;100.00;96450.16;4941603;28;20283;-38
2020/12/25 04:33:12;;;;;;;3.65;2.28;;;;;;;2.47;100.00;96445.63;4943619;28;20262;-38
2020/12/25 04:35:38;;;;;;;2.20;1.80;;;;;;;2.46;100.00;96456.78;4941705;28;20227;-38
2020/12/25 04:38:05;;;;;;;2.95;2.42;;;;;;;2.41;100.00;96453.53;4943502;28;20228;-39
2020/12/25 04:40:34;;;;;;;5.03;1.85;;;;;;;2.34;100.00;96446.91;4942775;28;20697;-39
2020/12/25 04:43:02;;;;;;;5.13;2.72;;;;;;;2.39;100.00;96463.88;4942955;28;20234;-39
2020/12/25 04:45:29;;;;;;;3.00;2.63;;;;;;;2.39;100.00;96469.00;4945791;28;20258;-38
2020/12/25 04:47:58;;;;;;;4.00;2.45;;;;;;;2.35;100.00;96475.09;4946797;28;20633;-44
2020/12/25 04:50:25;;;;;;;4.30;2.80;;;;;;;2.31;100.00;96472.69;4943550;28;20702;-44
2020/12/25 04:52:52;;;;;;;5.55;2.72;;;;;;;2.33;100.00;96479.47;4943061;28;20557;-38
2020/12/25 04:55:19;;;;;;;3.50;2.50;;;;;;;2.33;100.00;96484.59;4942094;28;20607;-39
2020/12/25 04:57:46;;;;;;;5.93;3.30;;;;;;;2.33;100.00;96489.72;4937420;28;20870;-38
2020/12/25 05:00:18;;;;;;;3.10;2.80;;;;;;;2.42;100.00;96489.44;4941930;28;20278;-39
2020/12/25 05:02:48;;;;;;;3.03;2.50;;;;;;;2.48;100.00;96483.25;4945786;28;20670;-39
2020/12/25 05:05:17;;;;;;;4.82;3.05;;;;;;;2.50;100.00;96489.19;4938796;28;20315;-39
2020/12/25 05:07:45;;;;;;;4.57;2.53;;;;;;;2.51;100.00;96493.44;4937955;28;20211;-41
2020/12/25 05:10:12;;;;;;;3.05;2.55;;;;;;;2.48;100.00;96496.94;4937625;28;20228;-38
2020/12/25 05:12:39;;;;;;;2.72;2.10;;;;;;;2.38;100.00;96493.00;4944002;28;20909;-39
2020/12/25 05:15:09;;;;;;;3.17;2.72;;;;;;;2.38;100.00;96497.28;4943384;28;20232;-44
2020/12/25 05:17:36;;;;;;;4.00;3.40;;;;;;;2.35;100.00;96493.09;4939089;28;20235;-43
2020/12/25 05:20:04;;;;;;;2.95;2.60;;;;;;;2.34;100.00;96503.38;4941873;28;20243;-43
2020/12/25 05:22:31;;;;;;;4.22;2.10;;;;;;;2.29;100.00;96503.53;4942945;28;20555;-43
2020/12/25 05:25:01;;;;;;;3.85;2.53;;;;;;;2.33;100.00;96504.28;4939629;28;20922;-39
2020/12/25 05:27:28;;;;;;;3.60;2.15;;;;;;;2.38;100.00;96512.69;4936704;28;20740;-39
2020/12/25 05:29:57;;;;;;;4.63;2.28;;;;;;;2.40;100.00;96505.78;4936987;28;20640;-39
2020/12/25 05:32:28;;;;;;;3.45;2.40;;;;;;;2.48;100.00;96504.66;4937712;28;20203;-39
2020/12/25 05:34:56;;;;;;;4.30;2.92;;;;;;;2.47;100.00;96508.09;4942448;28;20290;-38
2020/12/25 05:37:32;;;;;;;5.90;2.80;;;;;;;2.46;100.00;96515.84;4943458;28;20241;-38
2020/12/25 05:40:01;;;;;;;4.30;2.70;;;;;;;2.46;100.00;96521.84;4938211;28;20654;-38
2020/12/25 05:42:28;;;;;;;6.05;2.60;;;;;;;2.52;100.00;96513.94;4939169;28;20595;-39
2020/12/25 05:44:57;;;;;;;7.85;2.47;;;;;;;2.62;100.00;96527.31;4942604;28;20220;-38
2020/12/25 05:47:23;;;;;;;2.97;2.17;;;;;;;2.51;100.00;96526.81;4945128;28;20380;-39
2020/12/25 05:49:52;;;;;;;4.50;2.72;;;;;;;2.62;100.00;96528.16;4942666;28;20325;-39
2020/12/25 05:52:19;;;;;;;4.63;3.10;;;;;;;2.60;100.00;96529.94;4944890;28;20639;-38
2020/12/25 05:54:48;;;;;;;4.80;3.28;;;;;;;2.70;100.00;96525.31;4941608;28;20759;-39
2020/12/25 05:57:18;;;;;;;3.90;2.63;;;;;;;2.54;100.00;96530.13;4942961;28;20224;-39
2020/12/25 05:59:47;;;;;;;5.60;3.38;;;;;;;2.55;100.00;96531.81;4944894;28;20887;-39
2020/12/25 06:02:16;;;;;;;3.92;2.88;;;;;;;2.27;100.00;96495.06;4942959;28;20259;-43
2020/12/25 06:04:43;;;;;;;5.63;3.10;;;;;;;2.57;100.00;96536.91;4940183;28;20571;-44
2020/12/25 06:07:30;;;;;;;5.07;2.92;;;;;;;2.51;100.00;96534.53;4940754;28;20217;-43
2020/12/25 06:09:59;;;;;;;3.70;2.80;;;;;;;2.55;100.00;96542.09;4940781;28;20540;-45
2020/12/25 06:12:40;;;;;;;4.10;2.60;;;;;;;2.57;100.00;96544.63;4940963;28;20646;-43
2020/12/25 06:15:10;;;;;;;4.35;2.75;;;;;;;2.51;100.00;96548.19;4945019;28;20231;-44
2020/12/25 06:17:43;;;;;;;3.38;2.80;;;;;;;2.37;100.00;96511.00;4946203;28;20245;-43
2020/12/25 06:20:14;;;;;;;3.80;2.70;;;;;;;2.61;100.00;96551.31;4946149;28;20735;-42
2020/12/25 06:22:44;;;;;;;5.82;2.85;;;;;;;2.60;100.00;96553.06;4939613;28;20699;-43
2020/12/25 06:25:14;;;;;;;3.65;2.85;;;;;;;2.57;100.00;96549.75;4941974;28;20277;-41
2020/12/25 06:27:48;;;;;;;7.20;2.33;;;;;;;2.49;100.00;96552.53;4938507;28;20208;-43
2020/12/25 06:30:23;;;;;;;4.78;3.17;;;;;;;2.57;100.00;96558.28;4944103;28;20271;-42
2020/12/25 06:32:53;;;;;;;4.70;2.47;;;;;;;2.65;100.00;96558.88;4942339;28;20519;-43
2020/12/25 06:35:31;;;;;;;3.42;2.35;;;;;;;2.64;100.00;96567.47;4940453;28;20550;-43
2020/12/25 06:37:59;;;;;;;4.30;2.53;;;;;;;2.52;100.00;96560.19;4941148;28;20279;-43
2020/12/25 06:40:27;;;;;;;3.05;2.22;;;;;;;2.53;100.00;96559.28;4939774;28;20296;-43
2020/12/25 06:42:55;;;;;;;5.60;2.58;;;;;;;2.53;100.00;96564.41;4941394;28;20682;-43
2020/12/25 06:45:29;;;;;;;2.65;2.40;;;;;;;2.50;100.00;96568.81;4945135;28;20640;-43
2020/12/25 06:48:20;;;;;;;2.55;1.80;;;;;;;2.44;100.00;96574.94;4944880;28;20293;-44
2020/12/25 06:50:52;;;;;;;15.70;10.68;;;;;;;2.48;100.00;96584.25;4929785;28;20290;-44
2020/12/25 06:53:36;;;;;;;4.25;2.42;;;;;;;2.46;100.00;96583.47;4939638;28;20711;-43
2020/12/25 06:56:14;;;;;;;2.88;2.20;;;;;;;2.56;100.00;96590.00;4939579;28;20531;-43
2020/12/25 06:58:46;;;;;;;2.03;1.80;;;;;;;2.55;100.00;96578.03;4937982;28;20231;-43
2020/12/25 07:01:14;;;;;;;3.08;2.05;;;;;;;2.63;100.00;96591.47;4940499;28;20635;-43
2020/12/25 07:03:42;;;;;;;2.38;1.52;;;;;;;2.77;100.00;96597.03;4939095;28;20481;-45
2020/12/25 07:06:10;;;;;;;2.10;1.65;;;;;;;2.61;100.00;96594.97;4945906;28;20525;-43
2020/12/25 07:08:45;;;;;;;2.10;1.90;;;;;;;2.67;100.00;96603.38;4944392;28;20819;-43
2020/12/25 07:11:13;;;;;;;2.67;1.80;;;;;;;2.64;100.00;96600.03;4945499;28;20239;-39
2020/12/25 07:13:41;;;;;;;3.63;1.88;;;;;;;2.64;100.00;96621.41;4936752;28;20200;-41
2020/12/25 07:16:09;;;;;;;2.05;1.60;;;;;;;2.64;100.00;96612.88;4942080;28;20206;-38
2020/12/25 07:18:36;;;;;;;3.55;1.80;;;;;;;2.61;100.00;96618.97;4936789;28;20591;-39
2020/12/25 07:21:05;;;;;;;2.78;2.05;;;;;;;2.52;100.00;96623.53;4945196;28;20712;-38
2020/12/25 07:23:32;;;;;;;1.55;1.45;;;;;;;2.52;100.00;96618.38;4941341;28;20246;-38
2020/12/25 07:26:02;;;;;;;2.58;2.05;;;;;;;2.53;100.00;96620.94;4944001;28;20204;-38
2020/12/25 07:28:29;;;;;;;2.45;1.95;;;;;;;2.60;100.00;96627.56;4942823;28;20235;-38
2020/12/25 07:30:58;;;;;;;2.50;1.63;;;;;;;2.62;100.00;96630.91;4943818;28;20196;-38
2020/12/25 07:33:25;;;;;;;1.90;1.75;;;;;;;2.49;100.00;96629.59;4944149;28;20208;-38
2020/12/25 07:35:52;;;;;;;2.92;1.98;;;;;;;2.52;100.00;96638.94;4943086;28;20208;-39
2020/12/25 07:38:28;;;;;;;3.63;2.72;;;;;;;2.38;100.00;96626.53;4936984;28;20187;-42
2020/12/25 07:40:55;;;;;;;3.72;3.10;;;;;;;2.45;100.00;96638.28;4940358;28;20226;-45
2020/12/25 07:43:23;;;;;;;3.70;2.63;;;;;;;2.58;100.00;96639.59;4939823;28;20273;-42
2020/12/25 07:45:50;;;;;;;4.28;2.60;;;;;;;2.54;100.00;96643.16;4938621;28;20710;-43
2020/12/25 07:48:18;;;;;;;2.58;2.05;;;;;;;2.63;100.00;96652.28;4939400;28;20606;-38
2020/12/25 07:50:46;;;;;;;4.80;2.78;;;;;;;2.67;100.00;96643.59;4940198;28;20231;-38
2020/12/25 07:53:15;;;;;;;5.13;2.80;;;;;;;2.68;100.00;96653.84;4939833;28;20597;-38
2020/12/25 07:55:44;;;;;;;3.08;2.47;;;;;;;2.72;100.00;96659.72;4932757;28;20845;-38
2020/12/25 07:58:13;;;;;;;3.50;2.78;;;;;;;2.66;100.00;96662.47;4942604;28;20564;-38
2020/12/25 08:00:41;;;;;;;4.55;3.60;;;;;;;2.63;100.00;96667.69;4940772;28;20305;-38
2020/12/25 08:03:09;;;;;;;5.38;3.58;;;;;;;2.63;100.00;96668.56;4943308;28;20195;-38
2020/12/25 08:05:37;;;;;;;6.97;4.18;;;;;;;2.68;100.00;96669.25;4943398;28;20790;-43
2020/12/25 08:08:04;;;;;;;9.52;4.75;;;;;;;2.66;100.00;96668.44;4941518;28;20774;-44
2020/12/25 08:10:34;;;;;;;5.30;3.67;;;;;;;2.69;100.00;96668.38;4943498;28;20235;-39
2020/12/25 08:13:04;;;;;;;9.68;5.93;;;;;;;2.66;100.00;96673.59;4941843;28;20282;-38
2020/12/25 08:15:33;;;;;;;6.78;4.60;;;;;;;2.75;100.00;96668.19;4937406;28;20232;-39
2020/12/25 08:18:03;;;;;;;9.20;5.55;;;;;;;2.73;100.00;96671.69;4937496;28;20219;-41
2020/12/25 08:20:31;;;;;;;8.27;5.30;;;;;;;2.75;100.00;96678.47;4942353;28;20666;-39
2020/12/25 08:22:59;;;;;;;9.38;6.80;;;;;;;2.63;100.00;96662.56;4941900;28;20278;-40
2020/12/25 08:25:27;;;;;;;9.00;5.95;;;;;;;2.82;100.00;96679.97;4946396;28;20224;-39
2020/12/25 08:27:55;;;;;;;9.20;5.90;;;;;;;2.82;100.00;96690.25;4942629;28;20760;-39
2020/12/25 08:30:22;;;;;;;11.13;6.75;;;;;;;2.79;100.00;96682.59;4944353;28;20428;-37
2020/12/25 08:32:50;;;;;;;11.27;6.78;;;;;;;2.54;100.00;96650.00;4938587;28;20197;-38
2020/12/25 08:35:19;;;;;;;14.45;7.10;;;;;;;2.76;100.00;96692.13;4938867;28;20300;-38
2020/12/25 08:37:53;;;;;;;12.02;6.75;;;;;;;2.82;100.00;96695.38;4937577;28;20225;-38
2020/12/25 08:40:22;;;;;;;13.20;7.53;;;;;;;2.54;100.00;96634.59;4942502;28;20547;-38
2020/12/25 08:42:49;;;;;;;9.57;6.18;;;;;;;2.93;100.00;96700.19;4943817;28;20283;-38
2020/12/25 08:45:18;;;;;;;10.30;6.47;;;;;;;2.89;100.00;96685.75;4942796;28;20233;-38
2020/12/25 08:48:02;;;;;;;9.65;5.53;;;;;;;3.02;100.00;96697.34;4941007;28;20212;-38
2020/12/25 08:50:29;;;;;;;11.52;6.45;;;;;;;3.04;100.00;96696.41;4936625;28;20744;-38
2020/12/25 08:53:14;;;;;;;11.27;5.88;;;;;;;3.01;100.00;96704.19;4941597;28;20222;-42
2020/12/25 08:55:42;;;;;;;16.38;7.80;;;;;;;3.00;100.00;96707.66;4935362;28;20226;-45
2020/12/25 08:58:09;;;;;;;14.93;7.22;;;;;;;2.97;100.00;96712.91;4938082;28;20686;-42
2020/12/25 09:00:36;;;;;;;10.32;6.40;;;;;;;3.09;100.00;96712.50;4941784;28;20255;-43
2020/12/25 09:03:03;;;;;;;13.35;7.88;;;;;;;3.05;100.00;96723.78;4938451;28;20289;-38
2020/12/25 09:05:30;;;;;;;17.17;8.27;;;;;;;3.07;100.00;96727.16;4941445;28;20474;-39
2020/12/25 09:07:57;;;;;;;17.13;7.50;;;;;;;3.12;100.00;96722.72;4939213;28;20277;-38
2020/12/25 09:10:24;;;;;;;20.35;8.82;;;;;;;3.15;100.00;96730.31;4942079;28;20615;-39
2020/12/25 09:12:51;;;;;;;14.38;8.52;;;;;;;3.15;100.00;96727.75;4942214;28;20599;-43
2020/12/25 09:15:18;;;;;;;17.67;8.80;;;;;;;3.17;100.00;96727.72;4943785;28;20959;-39
2020/12/25 09:17:46;;;;;;;14.75;7.63;;;;;;;3.05;100.00;96723.78;4944012;28;20583;-45
2020/12/25 09:20:13;;;;;;;15.73;8.70;;;;;;;3.15;100.00;96738.03;4944544;28;20728;-48
2020/12/25 09:22:41;;;;;;;14.63;9.30;;;;;;;3.09;100.00;96740.78;4938876;28;20999;-48
2020/12/25 09:25:08;;;;;;;13.13;8.35;;;;;;;3.10;100.00;96745.03;4936559;28;20223;-48
2020/12/25 09:27:36;;;;;;;14.90;8.02;;;;;;;3.17;100.00;96743.13;4940667;28;20210;-48
2020/12/25 09:30:03;;;;;;;13.02;7.13;;;;;;;3.16;100.00;96747.41;4940009;28;20233;-44
2020/12/25 09:32:30;;;;;;;18.20;10.50;;;;;;;3.15;100.00;96756.03;4940936;28;20202;-44
2020/12/25 09:34:57;;;;;;;15.40;7.38;;;;;;;3.17;100.00;96749.09;4939583;28;20263;-44
2020/12/25 09:37:24;;;;;;;11.63;7.45;;;;;;;3.19;100.00;96757.63;4941352;28;20194;-44
2020/12/25 09:39:51;;;;;;;13.13;6.80;;;;;;;3.17;100.00;96764.53;4940092;28;20666;-44
2020/12/25 09:42:18;;;;;;;12.77;7.15;;;;;;;3.20;100.00;96761.88;4941670;28;20650;-48
2020/12/25 09:44:45;;;;;;;11.55;6.75;;;;;;;3.20;100.00;96759.31;4937673;28;20586;-48
2020/12/25 09:47:12;;;;;;;11.77;6.78;;;;;;;3.25;100.00;96765.16;4940419;28;20231;-48
2020/12/25 09:49:38;;;;;;;13.35;6.65;;;;;;;3.22;100.00;96767.81;4942924;28;20322;-44
2020/12/25 09:52:06;;;;;;;10.50;6.65;;;;;;;3.12;100.00;96761.28;4940222;28;20640;-45
2020/12/25 09:54:32;;;;;;;12.48;6.38;;;;;;;3.13;100.00;96770.66;4939817;28;20618;-44
2020/12/25 09:57:02;;;;;;;9.25;5.32;;;;;;;3.12;100.00;96771.56;4939178;28;20589;-48
2020/12/25 09:59:28;;;;;;;9.15;5.30;;;;;;;3.09;100.00;96769.06;4938031;28;20235;-44
2020/12/25 10:01:55;;;;;;;11.45;5.63;;;;;;;3.11;100.00;96777.59;4936604;28;20718;-44
2020/12/25 10:04:22;;;;;;;10.30;5.50;;;;;;;3.07;100.00;96781.13;4940284;28;20683;-48
2020/12/25 10:06:49;;;;;;;16.48;9.27;;;;;;;3.01;100.00;96763.31;4940959;28;20200;-48
2020/12/25 10:09:16;;;;;;;20.13;10.85;;;;;;;3.23;100.00;96769.50;4941750;28;20253;-46
2020/12/25 10:11:43;;;;;;;9.48;4.88;;;;;;;3.35;99.64;96774.25;4940289;28;20679;-44
2020/12/25 10:14:10;;;;;;;13.68;6.03;;;;;;;3.41;99.23;96776.66;4941345;28;20225;-44
2020/12/25 10:16:37;;;;;;;14.90;6.20;;;;;;;3.47;99.31;96778.19;4940316;28;20634;-44
2020/12/25 10:19:04;;;;;;;11.77;5.70;;;;;;;3.52;98.77;96776.31;4939950;28;20227;-44
2020/12/25 10:21:31;;;;;;;9.80;6.00;;;;;;;3.59;98.54;96777.81;4943374;28;20202;-48
2020/12/25 10:23:58;;;;;;;10.15;5.43;;;;;;;3.65;98.08;96777.59;4937939;28;20218;-48
2020/12/25 10:26:25;;;;;;;10.73;5.85;;;;;;;3.67;97.96;96781.78;4936921;28;20717;-48
2020/12/25 10:28:52;;;;;;;11.15;5.38;;;;;;;3.70;98.18;96784.28;4940630;28;20233;-48
2020/12/25 10:31:20;;;;;;;15.70;5.40;;;;;;;3.69;97.61;96779.19;4944765;28;20654;-49
2020/12/25 10:33:46;;;;;;;9.63;5.05;;;;;;;3.67;97.91;96771.50;4943774;28;20865;-45
2020/12/25 10:36:13;;;;;;;9.27;5.10;;;;;;;3.71;97.13;96773.09;4944646;28;20679;-44
2020/12/25 10:38:40;;;;;;;15.18;5.32;;;;;;;3.70;96.92;96776.56;4943193;28;20761;-44
2020/12/25 10:41:09;;;;;;;13.23;6.00;;;;;;;3.68;96.77;96773.19;4943797;28;20612;-44
2020/12/25 10:43:36;;;;;;;8.23;4.70;;;;;;;3.66;97.13;96774.97;4946200;28;20226;-44
2020/12/25 10:46:03;;;;;;;13.07;4.80;;;;;;;3.62;96.98;96775.97;4943546;28;20660;-44
2020/12/25 10:48:30;;;;;;;10.23;5.72;;;;;;;3.61;96.68;96781.16;4944466;28;20669;-44
2020/12/25 10:50:57;;;;;;;11.38;4.88;;;;;;;3.60;96.84;96780.31;4942404;28;20607;-44
2020/12/25 10:53:24;;;;;;;13.40;5.20;;;;;;;3.61;96.66;96786.31;4943612;28;20256;-44
2020/12/25 10:55:51;;;;;;;7.15;4.60;;;;;;;3.62;96.93;96778.56;4938725;28;20261;-44
2020/12/25 10:58:18;;;;;;;7.75;4.35;;;;;;;3.60;96.77;96784.63;4940920;28;20703;-44
2020/12/25 11:00:45;;;;;;;8.02;5.20;;;;;;;3.56;96.76;96777.88;4938655;28;20696;-44
2020/12/25 11:03:12;;;;;;;8.75;5.07;;;;;;;3.60;96.68;96785.44;4939013;28;20314;-44
2020/12/25 11:05:39;;;;;;;10.82;4.25;;;;;;;3.68;96.49;96786.03;4938433;28;20615;-44
2020/12/25 11:08:06;;;;;;;10.68;5.20;;;;;;;3.65;96.18;96783.59;4939344;28;20262;-44
2020/12/25 11:10:47;;;;;;;9.68;3.35;;;;;;;3.54;95.85;96780.50;4938077;28;20317;-44
2020/12/25 11:13:13;;;;;;;9.38;4.68;;;;;;;3.61;95.47;96781.97;4940710;28;20436;-44
2020/12/25 11:15:41;;;;;;;6.40;3.90;;;;;;;3.64;94.62;96784.47;4939438;28;20318;-44
2020/12/25 11:18:07;;;;;;;6.60;3.97;;;;;;;3.72;94.61;96779.91;4939488;28;20769;-44
2020/12/25 11:20:34;;;;;;;8.35;4.85;;;;;;;3.77;94.58;96790.06;4943398;28;20257;-44
2020/12/25 11:23:02;;;;;;;5.88;3.83;;;;;;;3.84;94.76;96783.81;4941641;28;20685;-47
2020/12/25 11:25:29;;;;;;;10.73;4.28;;;;;;;3.82;93.83;96786.44;4943428;28;20696;-48
2020/12/25 11:27:55;;;;;;;8.40;4.38;;;;;;;3.82;94.31;96786.44;4944387;28;20902;-48
2020/12/25 11:30:22;;;;;;;7.90;4.70;;;;;;;3.90;94.74;96788.78;4940758;28;20619;-48
2020/12/25 11:32:49;;;;;;;6.72;3.65;;;;;;;3.97;94.25;96789.38;4942710;28;20286;-44
2020/12/25 11:35:16;;;;;;;7.20;4.10;;;;;;;4.00;94.76;96791.00;4943623;28;20652;-45